ADDS METAR Data INFO
IDs: Format: Raw Decoded Include TAF

Data at: 2110 UTC 22 Oct 2017

KAUO 222056Z AUTO 12006KT 10SM CLR 26/19 A3009 RMK AO2 SLP204 T02560194 56021
KAUO 221956Z AUTO VRB06KT 10SM FEW065 26/19 A3012 RMK AO2 SLP212 T02610194
KAUO 221856Z AUTO 15009G15KT 10SM FEW029 SCT070 26/19 A3013 RMK AO2 SLP214 T02610189
KAUO 221756Z AUTO 14006KT 10SM FEW070 26/19 A3016 RMK AO2 SLP225 T02560194 10261 20178 58018
KAUO 221656Z AUTO 13010KT 10SM SCT021 OVC070 25/20 A3018 RMK AO2 SLP234 T02500200
KAUO 221653Z AUTO 14008G15KT 10SM FEW021 SCT025 OVC070 25/20 A3019 RMK AO2
KAUO 221556Z AUTO 15009G14KT 10SM BKN019 OVC060 23/19 A3021 RMK AO2 SLP244 T02330194
KAUO 221532Z AUTO 12012KT 10SM FEW016 SCT021 OVC060 23/19 A3020 RMK AO2
KAUO 221514Z AUTO 14010KT 10SM SCT014 BKN021 OVC060 22/19 A3021 RMK AO2
KAUO 221456Z AUTO 12007KT 10SM SCT014 BKN060 22/19 A3021 RMK AO2 SLP244 T02220189 50000
KAUO 221356Z AUTO 10008KT 10SM FEW016 21/18 A3023 RMK AO2 SLP251 T02060178
KAUO 221256Z AUTO 09007KT 10SM FEW016 18/17 A3022 RMK AO2 SLP249 T01830167
KAUO 221156Z AUTO 10007KT 10SM SCT031 18/16 A3021 RMK AO2 SLP245 T01780161 10183 20167 53004
KAUO 221113Z AUTO 10008KT 10SM FEW020 SCT035 BKN047 18/17 A3020 RMK AO2
KAUO 221105Z AUTO 10008KT 10SM SCT022 BKN028 OVC050 18/17 A3020 RMK AO2
KAUO 221056Z AUTO 10007KT 10SM FEW022 BKN037 OVC048 17/16 A3021 RMK AO2 SLP244 T01720161
KAUO 221048Z AUTO 09005KT 10SM FEW022 BKN029 OVC050 17/16 A3020 RMK AO2
KAUO 220956Z AUTO 09008KT 10SM FEW034 SCT043 BKN050 17/16 A3020 RMK AO2 SLP240 T01720161
KAUO 220856Z AUTO 09007KT 10SM OVC039 18/16 A3020 RMK AO2 SLP239 T01780161 58009
KAUO 220756Z AUTO 09007KT 10SM CLR 17/16 A3021 RMK AO2 SLP242 T01720156
KAUO 220656Z AUTO 10007KT 10SM CLR 18/15 A3022 RMK AO2 SLP249 T01780150
KAUO 220556Z AUTO VRB05KT 10SM CLR 18/14 A3023 RMK AO2 SLP250 T01830144 10217 20183 402610150 58006
KAUO 220456Z AUTO 10007KT 10SM CLR 19/14 A3023 RMK AO2 SLP253 T01890139
KAUO 220356Z AUTO 07007KT 10SM FEW047 19/14 A3025 RMK AO2 SLP258 T01890144
KAUO 220256Z AUTO 08008KT 10SM SCT049 19/14 A3024 RMK AO2 SLP258 T01940144 50007
KAUO 220156Z AUTO 08006KT 10SM CLR 20/15 A3025 RMK AO2 SLP259 T02000150
KAUO 220056Z AUTO 09006KT 10SM CLR 21/15 A3023 RMK AO2 SLP255 T02110150
KAUO 212356Z AUTO 07005KT 10SM CLR 22/16 A3022 RMK AO2 SLP252 T02170161 10261 20211 53005
KAUO 212256Z AUTO 07006KT 10SM SCT049 23/17 A3021 RMK AO2 SLP246 T02280167
KAUO 212156Z AUTO 10005KT 10SM SCT049 25/16 A3021 RMK AO2 SLP244 T02500161
KAUO 212056Z AUTO 12005KT 10SM FEW041 25/16 A3021 RMK AO2 SLP244 T02500161 56012
KAUO 211956Z AUTO 10007KT 060V140 10SM FEW039 26/17 A3021 RMK AO2 SLP246 T02560167
KAUO 211856Z AUTO 11007KT 10SM CLR 24/16 A3023 RMK AO2 SLP250 T02390161
KAUO 211756Z AUTO 10006KT 10SM CLR 24/16 A3024 RMK AO2 SLP256 T02390156 10239 20150 58011
KAUO 211656Z AUTO 10008KT 10SM CLR 23/16 A3027 RMK AO2 SLP266 T02280156
KAUO 211556Z AUTO 10008KT 10SM CLR 21/15 A3028 RMK AO2 SLP270 T02110150
KAUO 211456Z AUTO 10010KT 10SM CLR 19/14 A3028 RMK AO2 SLP270 T01940144 51015
KAUO 211356Z AUTO 09006KT 10SM CLR 17/14 A3027 RMK AO2 SLP268 T01720139
KAUO 211256Z AUTO 09004KT 10SM CLR 15/13 A3025 RMK AO2 SLP264 T01500128
KAUO 211156Z AUTO 07006KT 10SM CLR 15/12 A3023 RMK AO2 SLP258 T01500122 10172 20150 52009
KAUO 211056Z AUTO 09007KT 10SM CLR 15/13 A3023 RMK AO2 SLP253 T01500128
KAUO 210956Z AUTO 09006KT 10SM CLR 16/12 A3021 RMK AO2 SLP246 T01560122